METAR Data
IDs: Format: Raw Decoded Include TAF

Data at: 0016 UTC 26 Oct 2021

KRBO 252355Z AUTO 12010KT 10SM CLR 29/24 A2991 RMK AO2 T02910236 10345 20291
KRBO 252335Z AUTO 12010KT 10SM CLR 30/24 A2990 RMK AO2 T02990237
KRBO 252315Z AUTO 11011KT 10SM CLR 31/23 A2990 RMK AO2 T03050233
KRBO 252255Z AUTO 12010KT 10SM CLR 32/22 A2990 RMK AO2 T03150222
KRBO 252235Z AUTO 12011KT 10SM CLR 32/22 A2990 RMK AO2 T03210221
KRBO 252215Z AUTO 11010KT 10SM CLR 33/23 A2989 RMK AO2 T03250226
KRBO 252155Z AUTO 12010KT 10SM CLR 33/23 A2989 RMK AO2 T03330227
KRBO 252135Z AUTO 12012G16KT 10SM CLR 33/23 A2989 RMK AO2 T03310230
KRBO 252115Z AUTO 13010KT 10SM SCT040 34/23 A2989 RMK AO2 T03410234
KRBO 252055Z AUTO 09010G15KT 10SM SCT036 33/24 A2989 RMK AO2 T03340239
KRBO 252035Z AUTO 08010KT 10SM SCT038 SCT044 34/25 A2989 RMK AO2 T03440246
KRBO 252015Z AUTO 10008KT 10SM SCT040 SCT046 34/23 A2989 RMK AO2 T03390231
KRBO 251955Z AUTO 11007KT 10SM SCT038 34/24 A2990 RMK AO2 T03410235
KRBO 251935Z AUTO 13006KT 10SM SCT036 34/24 A2991 RMK AO2 T03360236
KRBO 251915Z AUTO 00000KT 10SM SCT034 34/24 A2991 RMK AO2 T03380236
KRBO 251855Z AUTO 06003KT 10SM CLR 33/24 A2992 RMK AO2 T03310236
KRBO 251835Z AUTO 16003KT 10SM CLR 33/23 A2994 RMK AO2 T03260234
KRBO 251815Z AUTO 17007KT 10SM SCT029 32/24 A2994 RMK AO2 T03240236
KRBO 251755Z AUTO 17005KT 10SM SCT027 32/24 A2995 RMK AO2 T03240240 10330 20250
KRBO 251735Z AUTO 00000KT 10SM SCT025 32/24 A2996 RMK AO2 T03200241
KRBO 251715Z AUTO 15005G08KT 10SM SCT025 32/24 A2996 RMK AO2 T03200241
KRBO 251655Z AUTO 18009KT 10SM SCT020 31/24 A2997 RMK AO2 T03100241
KRBO 251635Z AUTO 19007KT 10SM BKN018 30/25 A2997 RMK AO2 T03030247
KRBO 251615Z AUTO 17006KT 10SM BKN018 31/24 A2997 RMK AO2 T03060243
KRBO 251555Z AUTO 18007KT 10SM BKN016 28/25 A2997 RMK AO2 T02840248
KRBO 251535Z AUTO 20007KT 10SM SCT014 28/25 A2997 RMK AO2 T02770252
KRBO 251515Z AUTO 20006KT 10SM SCT006 BKN014 27/26 A2998 RMK AO2 T02680255
KRBO 251455Z AUTO 20005KT 10SM SCT006 SCT010 SCT014 27/26 A2997 RMK AO2 T02660263
KRBO 251435Z AUTO 21003KT 10SM BKN004 26/26 A2996 RMK AO2 T02640261
KRBO 251415Z AUTO 20004KT 10SM OVC002 26/26 A2996 RMK AO2 T02620260
KRBO 251355Z AUTO 00000KT 7SM BKN002 BKN007 BKN011 26/26 A2995 RMK AO2 T02570255
KRBO 251335Z AUTO 00000KT 7SM BKN011 26/26 A2994 RMK AO2 T02560255
KRBO 251315Z AUTO 20005KT 1/2SM FG OVC001 25/25 A2993 RMK AO2 T02540251
KRBO 251255Z AUTO 22004KT 1 1/4SM BR BKN003 BKN009 OVC014 25/25 A2993 RMK AO2 T02520250
KRBO 251235Z AUTO 00000KT 1 3/4SM BR BKN003 OVC009 25/25 A2993 RMK AO2 T02510250
KRBO 251215Z AUTO 00000KT 1SM BR BKN003 BKN006 OVC012 25/25 A2992 RMK AO2 T02500248
KRBO 251155Z AUTO 00000KT 1 1/2SM BR SCT003 OVC010 25/25 A2992 RMK AO2 T02530251 10259 20240
KRBO 251135Z AUTO 00000KT 1/2SM FG SCT003 OVC010 25/25 A2991 RMK AO2 T02500249
KRBO 251115Z AUTO 00000KT 3/4SM BR SCT001 SCT005 OVC010 25/25 A2990 RMK AO2 T02500247
KRBO 251055Z AUTO 00000KT 7SM SCT001 BKN008 25/25 A2990 RMK AO2 T02510249
KRBO 251035Z AUTO 00000KT 10SM OVC008 25/25 A2990 RMK AO2 T02520250
KRBO 251015Z AUTO 00000KT 7SM BKN008 25/25 A2990 RMK AO2 T02480246
KRBO 250955Z AUTO 00000KT 5SM BR BKN008 25/25 A2990 RMK AO2 T02460245
KRBO 250935Z AUTO 00000KT 2SM BR OVC008 25/25 A2990 RMK AO2 T02500247
KRBO 250915Z AUTO 00000KT 1 3/4SM BR OVC008 25/25 A2990 RMK AO2 T02480246
KRBO 250855Z AUTO 00000KT 3/4SM BR SCT002 OVC008 24/24 A2990 RMK AO2 T02420240
KRBO 250835Z AUTO 00000KT 1/2SM FG SCT002 BKN008 24/24 A2990 RMK AO2 T02420239
KRBO 250815Z AUTO 00000KT 3SM BR CLR 25/24 A2990 RMK AO2 T02450240
KRBO 250755Z AUTO 00000KT 1 1/2SM BR VV007 25/24 A2990 RMK AO2 VIS 3/4V5 T02470242
KRBO 250735Z AUTO 00000KT 4SM BR CLR 25/25 A2991 RMK AO2 T02520248
KRBO 250715Z AUTO 00000KT 10SM CLR 25/25 A2991 RMK AO2 T02500245
KRBO 250655Z AUTO 14004KT 10SM CLR 25/25 A2990 RMK AO2 T02500245
KRBO 250635Z AUTO 00000KT 10SM CLR 26/25 A2990 RMK AO2 T02550248
KRBO 250615Z AUTO 00000KT 10SM CLR 26/25 A2990 RMK AO2 T02550249
KRBO 250555Z AUTO 14003KT 10SM CLR 26/25 A2990 RMK AO2 T02600252 10295 20260 403450230
KRBO 250535Z AUTO 14004KT 10SM CLR 26/25 A2990 RMK AO2 T02600252
KRBO 250515Z AUTO 14004KT 10SM CLR 26/25 A2990 RMK AO2 T02620254
KRBO 250455Z AUTO 14004KT 10SM CLR 26/25 A2990 RMK AO2 T02620253
KRBO 250435Z AUTO 14004KT 10SM CLR 27/26 A2989 RMK AO2 T02650255
KRBO 250415Z AUTO 15005KT 10SM CLR 27/26 A2989 RMK AO2 T02660255
KRBO 250355Z AUTO 14005KT 10SM CLR 27/26 A2988 RMK AO2 T02680256
KRBO 250335Z AUTO 15005KT 10SM CLR 27/26 A2987 RMK AO2 T02700256
KRBO 250315Z AUTO 14005KT 10SM CLR 27/26 A2987 RMK AO2 T02700256
KRBO 250255Z AUTO 15006KT 10SM CLR 27/26 A2986 RMK AO2 T02700255
KRBO 250235Z AUTO 15004KT 10SM CLR 27/25 A2986 RMK AO2 T02700253
KRBO 250215Z AUTO 14005KT 10SM CLR 27/25 A2985 RMK AO2 T02710253
KRBO 250155Z AUTO 13007KT 10SM CLR 28/25 A2984 RMK AO2 T02750253
KRBO 250135Z AUTO 13007KT 10SM CLR 28/25 A2983 RMK AO2 T02760252
KRBO 250115Z AUTO 14009KT 10SM CLR 28/25 A2982 RMK AO2 T02780253
KRBO 250055Z AUTO 14009KT 10SM CLR 28/25 A2982 RMK AO2 T02810253
KRBO 250035Z AUTO 13011KT 10SM CLR 29/25 A2981 RMK AO2 T02850251
KRBO 250015Z AUTO 13010KT 10SM CLR 29/25 A2981 RMK AO2 T02900247
KRBO 242355Z AUTO 13009KT 10SM CLR 30/25 A2981 RMK AO2 T02950245 10345 20295
KRBO 242335Z AUTO 13013KT 10SM CLR 30/25 A2981 RMK AO2 T03020245
KRBO 242315Z AUTO 13013G16KT 10SM CLR 31/24 A2980 RMK AO2 T03100241
KRBO 242255Z AUTO 14012KT 10SM CLR 32/24 A2980 RMK AO2 T03150240
KRBO 242235Z AUTO 14010KT 10SM SCT036 32/24 A2980 RMK AO2 T03240240
KRBO 242215Z AUTO 14012KT 10SM SCT036 33/24 A2980 RMK AO2 T03310239
KRBO 242155Z AUTO 14009KT 10SM CLR 32/24 A2980 RMK AO2 T03240240
KRBO 242135Z AUTO 15010KT 10SM CLR 33/24 A2980 RMK AO2 T03330237
KRBO 242115Z AUTO 14009KT 10SM SCT050 33/23 A2980 RMK AO2 T03290234
KRBO 242055Z AUTO 14007KT 10SM SCT043 BKN055 33/23 A2980 RMK AO2 T03340234
KRBO 242035Z AUTO 15008KT 10SM SCT043 SCT048 33/22 A2979 RMK AO2 T03310224
KRBO 242015Z AUTO 17006KT 10SM CLR 34/22 A2979 RMK AO2 T03350220
KRBO 241955Z AUTO 18005KT 10SM SCT049 33/22 A2979 RMK AO2 T03330222
KRBO 241935Z AUTO 14006KT 10SM SCT049 33/22 A2980 RMK AO2 T03340220
KRBO 241915Z AUTO 15007KT 10SM SCT042 SCT049 33/22 A2981 RMK AO2 T03280220
KRBO 241855Z AUTO 17006KT 10SM SCT042 34/23 A2982 RMK AO2 T03360227
KRBO 241835Z AUTO 16007KT 5SM HZ CLR 34/22 A2983 RMK AO2 T03370223
KRBO 241815Z AUTO 17005KT 10SM SCT037 SCT043 33/23 A2984 RMK AO2 T03290226
KRBO 241755Z AUTO 19007KT 10SM SCT034 SCT040 32/23 A2984 RMK AO2 T03230233 10329 20233
KRBO 241735Z AUTO 15007KT 10SM SCT033 SCT041 SCT050 32/24 A2985 RMK AO2 T03230236
KRBO 241715Z AUTO 16010KT 10SM SCT030 SCT038 SCT050 32/23 A2986 RMK AO2 T03180234
KRBO 241655Z AUTO 17008KT 10SM SCT023 SCT028 SCT039 32/24 A2986 RMK AO2 T03180241
KRBO 241635Z AUTO 21007KT 10SM SCT023 SCT028 SCT037 31/25 A2987 RMK AO2 T03050246
KRBO 241615Z AUTO 18008KT 10SM CLR 30/25 A2987 RMK AO2 T02990250
KRBO 241555Z AUTO 18009KT 10SM SCT015 SCT023 29/25 A2987 RMK AO2 T02910250
KRBO 241535Z AUTO 20009KT 10SM BKN015 BKN023 29/25 A2987 RMK AO2 T02940254
KRBO 241515Z AUTO 16009KT 10SM BKN015 BKN021 29/26 A2987 RMK AO2 T02860255
KRBO 241455Z AUTO 18006KT 10SM SCT010 28/26 A2986 RMK AO2 T02830258
KRBO 241435Z AUTO 15006KT 10SM CLR 27/26 A2985 RMK AO2 T02700257
KRBO 241415Z AUTO 14004KT 10SM CLR 26/26 A2984 RMK AO2 T02630260
KRBO 241355Z AUTO 15003KT 10SM SCT017 26/26 A2984 RMK AO2 T02570255
KRBO 241335Z AUTO 00000KT 10SM SCT017 25/25 A2983 RMK AO2 T02500248
KRBO 241315Z AUTO 00000KT 10SM SCT013 SCT020 SCT025 24/24 A2982 RMK AO2 T02440242
KRBO 241255Z AUTO 14003KT 10SM SCT015 SCT023 BKN029 24/24 A2981 RMK AO2 T02400238
KRBO 241235Z AUTO 13004KT 10SM SCT017 SCT025 24/24 A2981 RMK AO2 T02400238